Time;durP1;ratioP1;P1;durP2;ratioP2;P2;SDS_P1;SDS_P2;PMS_P1;PMS_P2;Temp;Humidity;BMP_temperature;BMP_pressure;BME280_temperature;BME280_humidity;BME280_pressure;Samples;Min_cycle;Max_cycle;Signal;HPM_P1;HPM_P2
2023/02/11 00:01:56;;;;;;;29.47;18.93;;;-0.20;99.90;;;;;;5078224;28;20205;-65
2023/02/11 00:04:22;;;;;;;29.30;17.67;;;-0.20;99.90;;;;;;5078879;28;20721;-65
2023/02/11 00:06:49;;;;;;;28.47;17.70;;;-0.20;99.90;;;;;;5077837;28;20229;-65
2023/02/11 00:09:16;;;;;;;30.33;18.23;;;-0.20;99.90;;;;;;5080142;28;20209;-65
2023/02/11 00:11:44;;;;;;;30.00;18.10;;;-0.30;99.90;;;;;;5081509;28;20205;-64
2023/02/11 00:14:11;;;;;;;27.87;16.87;;;-0.40;99.90;;;;;;5081486;28;20236;-64
2023/02/11 00:16:38;;;;;;;29.90;18.07;;;-0.40;99.90;;;;;;5082076;28;20220;-64
2023/02/11 00:19:05;;;;;;;28.43;18.23;;;-0.40;99.90;;;;;;5087035;28;20212;-64
2023/02/11 00:21:32;;;;;;;31.37;18.73;;;-0.50;99.90;;;;;;5087113;28;20225;-64
2023/02/11 00:24:01;;;;;;;29.63;18.67;;;-0.60;99.90;;;;;;5088026;28;20201;-64
2023/02/11 00:26:30;;;;;;;29.50;17.77;;;-0.70;99.90;;;;;;5088887;28;20267;-64
2023/02/11 00:28:59;;;;;;;28.73;18.63;;;-0.70;99.90;;;;;;5088783;28;20209;-64
2023/02/11 00:31:27;;;;;;;31.80;18.67;;;-0.70;99.90;;;;;;5089835;28;20209;-64
2023/02/11 00:33:54;;;;;;;27.47;18.13;;;-0.70;99.90;;;;;;5089738;28;20512;-64
2023/02/11 00:36:23;;;;;;;27.57;18.13;;;-0.60;99.90;;;;;;5088937;28;20294;-64
2023/02/11 00:38:51;;;;;;;28.97;18.20;;;-0.60;99.90;;;;;;5089700;28;20235;-64
2023/02/11 00:41:18;;;;;;;29.10;17.90;;;-0.60;99.90;;;;;;5087136;28;20204;-64
2023/02/11 00:43:45;;;;;;;29.70;17.90;;;-0.60;99.90;;;;;;5086031;28;20231;-65
2023/02/11 00:46:14;;;;;;;27.87;17.47;;;-0.60;99.90;;;;;;5085718;28;20693;-65
2023/02/11 00:48:41;;;;;;;30.00;18.20;;;-0.60;99.90;;;;;;5085821;28;20208;-64
2023/02/11 00:51:08;;;;;;;29.17;18.10;;;-0.60;99.90;;;;;;5084090;28;20296;-64
2023/02/11 00:53:35;;;;;;;29.07;17.80;;;-0.60;99.90;;;;;;5081379;28;20227;-64
2023/02/11 00:56:03;;;;;;;26.03;17.60;;;-0.60;99.90;;;;;;5080514;28;20223;-64
2023/02/11 00:58:30;;;;;;;30.97;18.97;;;-0.50;99.90;;;;;;5089719;28;20196;-65
2023/02/11 01:00:56;;;;;;;30.40;18.67;;;-0.40;99.90;;;;;;5092244;28;20205;-65
2023/02/11 01:03:25;;;;;;;31.43;20.13;;;-0.40;99.90;;;;;;5091540;28;20217;-64
2023/02/11 01:05:52;;;;;;;28.87;17.70;;;-0.30;99.90;;;;;;5091376;28;20213;-64
2023/02/11 01:08:19;;;;;;;31.47;18.73;;;-0.30;99.90;;;;;;5090766;28;20236;-65
2023/02/11 01:10:45;;;;;;;29.63;18.50;;;-0.30;99.90;;;;;;5081772;28;20274;-64
2023/02/11 01:13:12;;;;;;;29.07;18.13;;;-0.30;99.90;;;;;;5075936;28;20216;-64
2023/02/11 01:15:39;;;;;;;27.57;18.00;;;-0.40;99.90;;;;;;5075582;28;20213;-64
2023/02/11 01:18:06;;;;;;;29.67;18.83;;;-0.30;99.90;;;;;;5075725;28;20267;-65
2023/02/11 01:20:34;;;;;;;28.60;19.03;;;-0.30;99.90;;;;;;5082028;28;20272;-64
2023/02/11 01:23:01;;;;;;;32.00;19.03;;;-0.30;99.90;;;;;;5088666;28;20420;-64
2023/02/11 01:25:27;;;;;;;31.50;18.63;;;-0.30;99.90;;;;;;5089333;28;20205;-64
2023/02/11 01:27:54;;;;;;;28.63;17.53;;;-0.20;99.90;;;;;;5089907;28;20212;-64
2023/02/11 01:30:21;;;;;;;29.00;18.97;;;-0.20;99.90;;;;;;5086114;28;20499;-64
2023/02/11 01:32:47;;;;;;;31.13;18.83;;;-0.20;99.90;;;;;;5074480;28;20205;-64
2023/02/11 01:35:14;;;;;;;30.40;17.63;;;-0.10;99.90;;;;;;5073977;28;20205;-64
2023/02/11 01:37:43;;;;;;;27.70;17.40;;;0.00;99.90;;;;;;5073243;28;20239;-64
2023/02/11 01:40:13;;;;;;;30.23;18.00;;;0.00;99.90;;;;;;5073752;28;20222;-64
2023/02/11 01:42:40;;;;;;;32.60;17.73;;;0.10;99.90;;;;;;5073681;28;20216;-64
2023/02/11 01:45:40;;;;;;;29.77;18.10;;;0.10;99.90;;;;;;5073359;28;20671;-65
2023/02/11 01:48:08;;;;;;;25.03;17.03;;;0.00;99.90;;;;;;5073024;28;20228;-65
2023/02/11 01:50:36;;;;;;;33.53;18.73;;;-0.10;99.90;;;;;;5073822;28;20630;-64
2023/02/11 01:58:34;;;;;;;27.43;17.50;;;0.00;99.90;;;;;;5075712;28;20299;-66
2023/02/11 02:01:04;;;;;;;29.33;17.67;;;0.00;99.90;;;;;;5077366;28;20661;-65
2023/02/11 02:03:33;;;;;;;30.23;18.73;;;0.10;99.90;;;;;;5077331;28;20205;-64
2023/02/11 02:06:06;;;;;;;29.00;18.03;;;0.20;99.90;;;;;;5076392;28;20208;-64
2023/02/11 02:08:38;;;;;;;28.70;17.33;;;0.30;99.90;;;;;;5076348;28;20212;-64
2023/02/11 02:11:05;;;;;;;28.10;17.27;;;0.40;99.90;;;;;;5076763;28;20189;-65
2023/02/11 02:13:34;;;;;;;27.43;17.47;;;0.50;99.90;;;;;;5075977;28;20213;-65
2023/02/11 02:16:03;;;;;;;29.13;17.63;;;0.70;99.90;;;;;;5076009;28;20292;-65
2023/02/11 02:18:40;;;;;;;29.07;17.17;;;0.80;99.90;;;;;;5076791;28;20239;-64
2023/02/11 02:21:40;;;;;;;28.87;16.33;;;1.00;99.90;;;;;;5076249;28;20652;-64
2023/02/11 02:24:56;;;;;;;27.40;17.63;;;1.10;99.90;;;;;;5076374;28;20215;-64
2023/02/11 02:27:37;;;;;;;27.10;16.37;;;1.50;99.90;;;;;;5082450;28;20327;-65
2023/02/11 02:30:35;;;;;;;27.93;18.17;;;1.20;99.90;;;;;;5087381;28;20583;-64
2023/02/11 02:33:21;;;;;;;26.37;17.00;;;1.30;99.90;;;;;;5083647;28;20213;-65
2023/02/11 02:35:56;;;;;;;25.97;16.97;;;1.30;99.90;;;;;;5076523;28;20205;-64
2023/02/11 02:38:27;;;;;;;24.80;16.73;;;1.40;99.90;;;;;;5076244;28;20200;-66
2023/02/11 02:40:58;;;;;;;25.80;17.40;;;1.40;99.90;;;;;;5075652;28;20217;-66
2023/02/11 02:43:27;;;;;;;26.03;17.50;;;1.40;99.90;;;;;;5076418;28;20556;-65
2023/02/11 02:45:54;;;;;;;26.73;16.97;;;1.60;99.90;;;;;;5076364;28;20212;-65
2023/02/11 02:48:27;;;;;;;24.60;16.37;;;1.60;99.90;;;;;;5076619;28;20228;-65
2023/02/11 02:51:04;;;;;;;22.03;15.67;;;1.70;99.90;;;;;;5092529;28;20228;-66
2023/02/11 02:53:42;;;;;;;26.80;16.67;;;1.80;99.90;;;;;;5091341;28;20405;-65
2023/02/11 02:56:17;;;;;;;27.70;16.97;;;1.70;99.90;;;;;;5090017;28;20229;-66
2023/02/11 02:59:13;;;;;;;22.57;16.40;;;1.70;99.90;;;;;;5087290;28;20212;-66
2023/02/11 03:01:50;;;;;;;27.23;16.47;;;1.50;99.90;;;;;;5076746;28;20561;-65
2023/02/11 03:04:23;;;;;;;25.03;16.43;;;1.70;99.90;;;;;;5076173;28;20207;-66
2023/02/11 03:06:54;;;;;;;26.97;17.03;;;1.80;99.90;;;;;;5075916;28;20704;-65
2023/02/11 03:09:27;;;;;;;26.67;17.00;;;2.00;99.90;;;;;;5074753;28;20208;-66
2023/02/11 03:11:54;;;;;;;25.83;16.67;;;2.10;99.90;;;;;;5075310;28;20210;-66
2023/02/11 03:14:23;;;;;;;26.37;16.43;;;2.20;99.90;;;;;;5075099;28;20227;-66
2023/02/11 03:16:51;;;;;;;26.80;16.97;;;2.30;99.90;;;;;;5074212;28;20221;-66
2023/02/11 03:19:23;;;;;;;24.93;16.17;;;2.30;99.90;;;;;;5074554;28;20219;-66
2023/02/11 03:21:52;;;;;;;26.83;17.20;;;2.40;99.90;;;;;;5074552;28;20668;-66
2023/02/11 03:24:24;;;;;;;25.07;16.90;;;2.50;99.90;;;;;;5074626;28;20209;-65
2023/02/11 03:26:53;;;;;;;24.47;16.57;;;2.50;99.90;;;;;;5074468;28;20225;-66
2023/02/11 03:29:31;;;;;;;25.87;17.13;;;2.60;99.90;;;;;;5074533;28;20205;-65
2023/02/11 03:32:05;;;;;;;27.10;18.03;;;2.50;99.90;;;;;;5074326;28;20308;-66
2023/02/11 03:34:39;;;;;;;27.93;18.00;;;2.50;99.90;;;;;;5074321;28;20284;-66
2023/02/11 03:37:11;;;;;;;23.63;16.50;;;2.60;99.90;;;;;;5074358;28;20232;-66
2023/02/11 03:39:40;;;;;;;23.70;17.20;;;2.60;99.90;;;;;;5074400;28;20232;-66
2023/02/11 03:42:09;;;;;;;29.03;18.43;;;2.50;99.90;;;;;;5074563;28;20208;-66
2023/02/11 03:44:40;;;;;;;27.23;18.00;;;2.50;99.90;;;;;;5074163;28;20204;-65
2023/02/11 03:47:10;;;;;;;25.07;16.60;;;2.40;99.90;;;;;;5074142;28;20252;-67
2023/02/11 03:49:40;;;;;;;27.57;17.47;;;2.40;99.90;;;;;;5074611;28;20606;-66
2023/02/11 03:52:10;;;;;;;28.07;17.23;;;2.30;99.90;;;;;;5074510;28;20201;-65
2023/02/11 03:54:38;;;;;;;27.10;18.13;;;2.30;99.90;;;;;;5073977;28;20238;-66
2023/02/11 03:57:05;;;;;;;30.93;18.20;;;2.30;99.90;;;;;;5074507;28;20255;-65
2023/02/11 03:59:31;;;;;;;27.17;17.87;;;2.20;99.90;;;;;;5074137;28;20201;-65
2023/02/11 04:01:59;;;;;;;25.57;16.93;;;2.20;99.90;;;;;;5073852;28;20560;-65
2023/02/11 04:04:25;;;;;;;24.07;16.93;;;2.20;99.90;;;;;;5074147;28;20236;-65
2023/02/11 04:06:53;;;;;;;23.43;16.93;;;2.20;99.90;;;;;;5073591;28;20229;-65
2023/02/11 04:09:20;;;;;;;27.03;17.30;;;2.10;99.90;;;;;;5073752;28;20575;-65
2023/02/11 04:11:47;;;;;;;27.53;17.10;;;2.00;99.90;;;;;;5073799;28;20251;-65
2023/02/11 04:14:14;;;;;;;29.73;17.60;;;2.00;99.90;;;;;;5073941;28;20589;-66
2023/02/11 04:16:40;;;;;;;26.07;17.03;;;2.00;99.90;;;;;;5073690;28;20346;-65
2023/02/11 04:19:07;;;;;;;27.87;17.50;;;2.10;99.90;;;;;;5073484;28;20606;-65
2023/02/11 04:21:34;;;;;;;22.57;15.77;;;2.20;99.90;;;;;;5073509;28;20303;-65
2023/02/11 04:24:02;;;;;;;25.30;17.73;;;2.30;99.90;;;;;;5073590;28;20204;-65
2023/02/11 04:26:28;;;;;;;26.57;17.03;;;2.30;99.90;;;;;;5073626;28;20260;-65
2023/02/11 04:28:55;;;;;;;25.53;17.37;;;2.40;99.90;;;;;;5072968;28;20477;-65
2023/02/11 04:31:22;;;;;;;27.17;18.00;;;2.40;99.90;;;;;;5073674;28;20205;-65
2023/02/11 04:33:48;;;;;;;27.37;18.57;;;2.30;99.90;;;;;;5073486;28;20217;-65
2023/02/11 04:36:15;;;;;;;27.70;17.97;;;2.40;99.90;;;;;;5073362;28;20335;-65
2023/02/11 04:38:42;;;;;;;26.97;17.60;;;2.50;99.90;;;;;;5073562;28;20710;-66
2023/02/11 04:41:10;;;;;;;24.10;16.83;;;2.70;99.90;;;;;;5073290;28;20734;-65
2023/02/11 04:43:37;;;;;;;25.93;17.27;;;2.80;99.90;;;;;;5073442;28;20204;-65
2023/02/11 04:46:03;;;;;;;24.43;16.97;;;3.00;99.90;;;;;;5073002;28;20212;-65
2023/02/11 04:48:30;;;;;;;25.73;16.57;;;3.10;99.90;;;;;;5073485;28;20696;-65
2023/02/11 04:50:57;;;;;;;26.60;17.57;;;3.20;99.90;;;;;;5073718;28;20209;-65
2023/02/11 04:53:23;;;;;;;25.67;16.87;;;3.10;99.90;;;;;;5073239;28;20205;-65
2023/02/11 04:55:50;;;;;;;26.40;18.27;;;3.10;99.90;;;;;;5073202;28;20208;-66
2023/02/11 04:58:19;;;;;;;24.63;16.87;;;3.10;99.90;;;;;;5073153;28;20613;-65
2023/02/11 05:00:46;;;;;;;27.33;17.57;;;3.00;99.90;;;;;;5072996;28;20414;-65
2023/02/11 05:03:13;;;;;;;28.03;18.00;;;2.90;99.90;;;;;;5072989;28;20209;-65
2023/02/11 05:05:41;;;;;;;26.90;17.93;;;2.70;99.90;;;;;;5074014;28;20596;-65
2023/02/11 05:08:08;;;;;;;25.03;17.83;;;2.70;99.90;;;;;;5074299;28;20252;-66
2023/02/11 05:10:35;;;;;;;29.77;17.10;;;2.90;99.90;;;;;;5090843;28;20209;-66
2023/02/11 05:13:02;;;;;;;23.13;17.37;;;3.10;99.90;;;;;;5083531;28;20209;-65
2023/02/11 05:15:30;;;;;;;33.30;19.77;;;3.20;99.90;;;;;;5073272;28;20586;-66
2023/02/11 05:17:57;;;;;;;25.37;17.90;;;3.40;99.90;;;;;;5072616;28;20225;-66
2023/02/11 05:20:24;;;;;;;27.73;18.80;;;3.50;99.90;;;;;;5072927;28;20205;-65
2023/02/11 05:22:51;;;;;;;25.60;17.47;;;3.60;99.90;;;;;;5072876;28;20750;-65
2023/02/11 05:25:19;;;;;;;26.77;16.83;;;3.60;99.90;;;;;;5073286;28;20299;-65
2023/02/11 05:27:46;;;;;;;25.10;16.83;;;3.60;99.90;;;;;;5072202;28;20232;-65
2023/02/11 05:30:13;;;;;;;24.23;16.30;;;3.80;99.90;;;;;;5072766;28;20213;-65
2023/02/11 05:32:42;;;;;;;23.73;16.87;;;3.50;99.90;;;;;;5075724;28;20219;-65
2023/02/11 05:35:08;;;;;;;25.10;16.43;;;3.40;99.90;;;;;;5079289;28;20291;-65
2023/02/11 05:37:35;;;;;;;26.20;17.63;;;3.40;99.90;;;;;;5079067;28;20224;-65
2023/02/11 05:40:02;;;;;;;25.20;17.47;;;3.40;99.90;;;;;;5079431;28;20216;-65
2023/02/11 05:42:29;;;;;;;25.23;15.83;;;3.50;99.90;;;;;;5079688;28;20210;-65
2023/02/11 05:44:56;;;;;;;27.87;17.47;;;3.40;99.90;;;;;;5079234;28;20212;-65
2023/02/11 05:47:23;;;;;;;26.40;17.97;;;3.40;99.90;;;;;;5079702;28;20387;-65
2023/02/11 05:49:52;;;;;;;24.97;17.53;;;3.40;99.90;;;;;;5079205;28;20262;-65
2023/02/11 05:52:19;;;;;;;26.67;16.77;;;3.50;99.90;;;;;;5079736;28;20213;-65
2023/02/11 05:54:45;;;;;;;26.67;18.10;;;3.60;99.90;;;;;;5080068;28;20208;-65
2023/02/11 05:57:12;;;;;;;25.93;16.57;;;3.70;99.90;;;;;;5079390;28;20338;-65
2023/02/11 05:59:39;;;;;;;24.90;16.37;;;3.80;99.90;;;;;;5079741;28;20212;-67
2023/02/11 06:02:07;;;;;;;22.13;16.27;;;3.80;99.90;;;;;;5079826;28;20585;-65
2023/02/11 06:04:34;;;;;;;23.07;17.10;;;3.80;99.90;;;;;;5079744;28;20251;-65
2023/02/11 06:07:02;;;;;;;23.13;17.30;;;3.70;99.90;;;;;;5079307;28;20239;-65
2023/02/11 06:09:29;;;;;;;24.30;16.90;;;3.80;99.90;;;;;;5079453;28;20221;-65
2023/02/11 06:11:55;;;;;;;27.87;18.57;;;3.80;99.90;;;;;;5079019;28;20231;-65
2023/02/11 06:14:22;;;;;;;25.17;17.30;;;3.70;99.90;;;;;;5079780;28;20209;-65
2023/02/11 06:16:49;;;;;;;28.50;19.00;;;3.70;99.90;;;;;;5079434;28;20229;-65
2023/02/11 06:19:16;;;;;;;24.37;16.83;;;3.60;99.90;;;;;;5079253;28;20208;-65
2023/02/11 06:21:42;;;;;;;25.23;17.80;;;3.50;99.90;;;;;;5079733;28;20208;-65
2023/02/11 06:24:11;;;;;;;25.17;17.87;;;3.40;99.90;;;;;;5079944;28;20235;-65
2023/02/11 06:26:37;;;;;;;26.03;18.30;;;3.40;99.90;;;;;;5079528;28;20224;-66
2023/02/11 06:29:04;;;;;;;25.90;17.90;;;3.30;99.90;;;;;;5079221;28;20232;-66
2023/02/11 06:31:31;;;;;;;24.63;16.80;;;3.40;99.90;;;;;;5079749;28;20209;-66
2023/02/11 06:33:58;;;;;;;25.03;17.60;;;3.40;99.90;;;;;;5079924;28;20681;-67
2023/02/11 06:36:24;;;;;;;24.27;17.70;;;3.40;99.90;;;;;;5095392;28;20307;-66
2023/02/11 06:38:52;;;;;;;23.40;17.00;;;3.50;99.90;;;;;;5095731;28;20578;-65
2023/02/11 06:41:20;;;;;;;23.93;16.80;;;3.50;99.90;;;;;;5094546;28;20295;-66
2023/02/11 06:43:47;;;;;;;23.27;17.13;;;3.50;99.90;;;;;;5092531;28;20276;-66
2023/02/11 06:46:14;;;;;;;26.77;17.60;;;3.60;99.90;;;;;;5090423;28;20225;-66
2023/02/11 06:48:41;;;;;;;24.90;17.93;;;3.50;99.90;;;;;;5082507;28;20225;-66
2023/02/11 06:51:10;;;;;;;27.83;17.67;;;3.50;99.90;;;;;;5088113;28;20209;-66
2023/02/11 06:53:38;;;;;;;24.03;16.53;;;3.50;99.90;;;;;;5085894;28;20205;-66
2023/02/11 06:56:06;;;;;;;30.97;18.47;;;3.60;99.90;;;;;;5088701;28;20209;-66
2023/02/11 06:58:35;;;;;;;24.77;16.70;;;3.60;99.90;;;;;;5089515;28;20209;-66
2023/02/11 07:01:06;;;;;;;27.03;17.57;;;3.60;99.90;;;;;;5091315;28;20209;-67
2023/02/11 07:03:33;;;;;;;21.23;15.60;;;3.60;99.90;;;;;;5090596;28;20211;-66
2023/02/11 07:06:01;;;;;;;25.17;16.83;;;3.40;99.90;;;;;;5090223;28;20246;-66
2023/02/11 07:08:28;;;;;;;27.27;16.90;;;3.20;99.90;;;;;;5087648;28;20228;-66
2023/02/11 07:10:55;;;;;;;27.13;17.40;;;3.00;99.90;;;;;;5088260;28;20205;-66
2023/02/11 07:13:21;;;;;;;25.27;16.87;;;3.00;99.90;;;;;;5088704;28;20228;-66
2023/02/11 07:15:49;;;;;;;22.37;16.17;;;3.10;99.90;;;;;;5088357;28;20226;-66
2023/02/11 07:18:16;;;;;;;21.17;14.90;;;3.30;99.90;;;;;;5088777;28;20212;-66
2023/02/11 07:20:43;;;;;;;22.40;15.73;;;3.60;99.90;;;;;;5088538;28;20212;-66
2023/02/11 07:23:10;;;;;;;31.70;17.50;;;3.50;99.90;;;;;;5087478;28;20219;-66
2023/02/11 07:25:37;;;;;;;27.77;18.00;;;3.60;99.90;;;;;;5087831;28;20220;-65
2023/02/11 07:28:04;;;;;;;24.20;16.87;;;3.70;99.90;;;;;;5088590;28;20225;-65
2023/02/11 07:30:31;;;;;;;22.23;17.10;;;3.70;99.90;;;;;;5086328;28;20208;-66
2023/02/11 07:32:59;;;;;;;24.30;17.17;;;3.80;99.90;;;;;;5085002;28;20201;-65
2023/02/11 07:35:26;;;;;;;26.37;18.23;;;3.90;99.90;;;;;;5079309;28;20232;-66
2023/02/11 07:37:52;;;;;;;25.97;16.77;;;3.90;99.90;;;;;;5075987;28;20237;-66
2023/02/11 07:40:19;;;;;;;27.60;18.60;;;4.00;99.90;;;;;;5076111;28;20211;-66
2023/02/11 07:42:46;;;;;;;26.67;17.43;;;4.00;99.90;;;;;;5076261;28;20205;-65
2023/02/11 07:45:13;;;;;;;24.67;18.23;;;4.20;99.90;;;;;;5075600;28;20215;-65
2023/02/11 07:47:41;;;;;;;28.03;18.17;;;4.30;99.90;;;;;;5075474;28;20316;-65
2023/02/11 07:50:10;;;;;;;25.10;17.07;;;4.60;99.90;;;;;;5074708;28;20311;-65
2023/02/11 07:52:36;;;;;;;25.40;17.70;;;4.90;99.90;;;;;;5074909;28;20681;-65
2023/02/11 07:55:03;;;;;;;25.43;17.03;;;5.10;99.90;;;;;;5074605;28;20224;-65
2023/02/11 07:57:30;;;;;;;26.27;16.87;;;5.30;99.90;;;;;;5074667;28;20229;-65
2023/02/11 07:59:57;;;;;;;27.03;17.70;;;5.60;99.90;;;;;;5074447;28;20205;-66
2023/02/11 08:02:23;;;;;;;24.83;17.67;;;5.80;99.90;;;;;;5074324;28;20205;-65
2023/02/11 08:04:50;;;;;;;22.90;16.80;;;5.90;99.90;;;;;;5074597;28;20258;-65
2023/02/11 08:07:19;;;;;;;24.90;15.77;;;6.00;99.90;;;;;;5073934;28;20283;-65
2023/02/11 08:09:46;;;;;;;25.47;17.20;;;6.10;99.90;;;;;;5073327;28;20225;-66
2023/02/11 08:12:13;;;;;;;25.77;17.20;;;6.30;99.90;;;;;;5073011;28;20201;-67
2023/02/11 08:14:39;;;;;;;23.30;17.13;;;6.50;99.90;;;;;;5072797;28;20291;-64
2023/02/11 08:17:06;;;;;;;24.17;17.20;;;6.80;99.90;;;;;;5072536;28;20588;-66
2023/02/11 08:19:33;;;;;;;22.97;16.40;;;7.00;99.90;;;;;;5072679;28;20220;-66
2023/02/11 08:22:00;;;;;;;24.90;16.80;;;7.20;99.90;;;;;;5072842;28;20201;-65
2023/02/11 08:24:28;;;;;;;23.37;16.17;;;7.40;99.90;;;;;;5072460;28;20296;-66
2023/02/11 08:26:55;;;;;;;22.37;16.00;;;7.50;99.90;;;;;;5072297;28;20225;-66
2023/02/11 08:29:22;;;;;;;23.10;16.87;;;7.50;99.90;;;;;;5071904;28;20228;-65
2023/02/11 08:31:49;;;;;;;27.40;19.73;;;7.50;99.90;;;;;;5072225;28;20208;-67
2023/02/11 08:34:17;;;;;;;21.77;16.10;;;7.50;99.90;;;;;;5071933;28;20209;-66
2023/02/11 08:36:45;;;;;;;21.90;15.47;;;7.40;99.90;;;;;;5072633;28;20246;-66
2023/02/11 08:39:15;;;;;;;19.00;13.87;;;7.20;99.90;;;;;;5071985;28;20626;-66
2023/02/11 08:41:44;;;;;;;17.63;13.33;;;7.00;99.90;;;;;;5072371;28;20213;-66
2023/02/11 08:44:11;;;;;;;20.50;15.03;;;6.90;99.90;;;;;;5072089;28;20212;-65
2023/02/11 08:46:37;;;;;;;25.17;16.73;;;6.90;99.90;;;;;;5072135;28;20679;-65
2023/02/11 08:49:04;;;;;;;28.57;17.87;;;7.00;99.90;;;;;;5072130;28;20236;-66
2023/02/11 08:51:32;;;;;;;24.43;17.97;;;7.00;99.90;;;;;;5072268;28;20213;-66
2023/02/11 08:54:00;;;;;;;22.30;15.60;;;7.00;99.90;;;;;;5072444;28;20209;-66
2023/02/11 08:56:27;;;;;;;20.87;14.10;;;7.10;99.90;;;;;;5073946;28;20303;-66
2023/02/11 08:58:55;;;;;;;19.57;14.40;;;7.30;99.90;;;;;;5074492;28;20278;-65
2023/02/11 09:01:24;;;;;;;21.40;14.70;;;7.30;99.90;;;;;;5074337;28;20205;-67
2023/02/11 09:03:52;;;;;;;20.63;14.67;;;7.40;99.90;;;;;;5073854;28;20207;-65
2023/02/11 09:06:21;;;;;;;22.67;13.13;;;7.30;99.90;;;;;;5075136;28;20244;-65
2023/02/11 09:08:50;;;;;;;19.33;14.33;;;7.10;99.90;;;;;;5076254;28;20306;-65
2023/02/11 09:11:18;;;;;;;18.20;13.53;;;7.00;99.90;;;;;;5076302;28;20227;-66
2023/02/11 09:13:45;;;;;;;17.23;13.23;;;7.10;99.90;;;;;;5076578;28;20274;-66
2023/02/11 09:16:20;;;;;;;21.37;14.33;;;7.30;99.90;;;;;;5075707;28;20732;-65
2023/02/11 09:18:47;;;;;;;18.23;13.23;;;7.60;99.90;;;;;;5074032;28;20296;-65
2023/02/11 09:21:15;;;;;;;15.03;9.90;;;7.80;99.90;;;;;;5072693;28;20204;-66
2023/02/11 09:23:43;;;;;;;12.90;9.57;;;8.00;99.90;;;;;;5071608;28;20211;-65
2023/02/11 09:26:14;;;;;;;13.10;9.60;;;8.20;99.90;;;;;;5071354;28;20253;-65
2023/02/11 09:28:40;;;;;;;12.53;9.50;;;8.50;99.90;;;;;;5071515;28;20286;-64
2023/02/11 09:31:09;;;;;;;13.20;9.13;;;8.70;99.90;;;;;;5071299;28;20623;-65
2023/02/11 09:33:38;;;;;;;12.97;8.73;;;9.00;99.90;;;;;;5071579;28;20204;-64
2023/02/11 09:36:06;;;;;;;13.53;8.93;;;9.30;99.90;;;;;;5071089;28;20378;-67
2023/02/11 09:38:33;;;;;;;10.97;8.00;;;9.50;99.90;;;;;;5071305;28;20232;-65
2023/02/11 09:41:02;;;;;;;14.53;9.00;;;9.60;99.90;;;;;;5071572;28;20204;-65
2023/02/11 09:43:35;;;;;;;15.53;9.40;;;9.80;99.90;;;;;;5071409;28;20201;-65
2023/02/11 09:46:02;;;;;;;14.33;8.70;;;9.90;99.90;;;;;;5071396;28;20209;-64
2023/02/11 09:48:34;;;;;;;14.60;9.13;;;10.10;99.90;;;;;;5071287;28;20212;-64
2023/02/11 09:51:03;;;;;;;11.50;8.20;;;10.00;99.90;;;;;;5072141;28;20213;-64
2023/02/11 09:53:36;;;;;;;7.37;3.87;;;10.00;99.90;;;;;;5072245;28;20295;-66
2023/02/11 09:56:10;;;;;;;9.23;3.50;;;9.90;99.90;;;;;;5071817;28;20216;-64
2023/02/11 09:58:40;;;;;;;5.50;3.30;;;9.90;99.90;;;;;;5071240;28;20217;-64
2023/02/11 10:01:13;;;;;;;5.97;3.73;;;10.00;99.90;;;;;;5071259;28;20205;-65
2023/02/11 10:03:56;;;;;;;3.83;3.00;;;10.10;99.90;;;;;;5071699;28;20208;-64
2023/02/11 10:06:39;;;;;;;6.27;3.77;;;10.10;99.90;;;;;;5071734;28;20235;-65
2023/02/11 10:09:21;;;;;;;4.67;3.73;;;10.00;99.90;;;;;;5070710;28;20221;-67
2023/02/11 10:11:57;;;;;;;10.73;5.53;;;9.90;99.90;;;;;;5071222;28;20661;-67
2023/02/11 10:14:45;;;;;;;8.10;6.50;;;9.70;99.90;;;;;;5071389;28;20227;-67
2023/02/11 10:17:21;;;;;;;9.70;6.13;;;9.70;99.90;;;;;;5070882;28;20560;-64
2023/02/11 10:20:01;;;;;;;7.97;6.20;;;9.80;99.90;;;;;;5073334;28;20205;-65
2023/02/11 10:22:34;;;;;;;8.90;6.40;;;9.70;99.90;;;;;;5074704;28;20204;-65
2023/02/11 10:25:15;;;;;;;9.17;6.03;;;9.50;99.90;;;;;;5074712;28;20263;-64
2023/02/11 10:27:43;;;;;;;8.93;6.63;;;9.60;99.90;;;;;;5074469;28;20608;-66
2023/02/11 10:30:20;;;;;;;11.07;6.80;;;9.50;99.90;;;;;;5073964;28;20228;-65
2023/02/11 10:32:51;;;;;;;12.43;7.33;;;9.60;99.90;;;;;;5074894;28;20254;-66
2023/02/11 10:35:21;;;;;;;10.43;6.80;;;9.70;99.90;;;;;;5075111;28;20209;-65
2023/02/11 10:37:50;;;;;;;8.50;6.30;;;9.60;99.90;;;;;;5074032;28;20232;-65
2023/02/11 10:40:20;;;;;;;9.67;7.00;;;9.60;99.90;;;;;;5074174;28;20212;-66
2023/02/11 10:42:49;;;;;;;10.70;7.10;;;9.70;99.90;;;;;;5074049;28;20211;-66
2023/02/11 10:45:21;;;;;;;10.97;6.97;;;9.80;99.90;;;;;;5073998;28;20676;-66
2023/02/11 10:47:48;;;;;;;9.00;6.93;;;9.90;99.90;;;;;;5074060;28;20256;-66
2023/02/11 10:50:22;;;;;;;9.17;7.00;;;10.00;99.90;;;;;;5073819;28;20228;-66
2023/02/11 10:52:50;;;;;;;9.50;7.07;;;10.00;99.90;;;;;;5073958;28;20200;-66
2023/02/11 10:55:20;;;;;;;13.47;7.30;;;10.10;99.90;;;;;;5074024;28;20201;-63
2023/02/11 10:57:54;;;;;;;9.23;6.57;;;10.00;99.90;;;;;;5073806;28;20278;-64
2023/02/11 11:00:35;;;;;;;8.17;6.03;;;10.00;99.90;;;;;;5069933;28;20651;-66
2023/02/11 11:03:03;;;;;;;9.67;6.13;;;10.10;99.90;;;;;;5069097;28;20288;-64
2023/02/11 11:05:32;;;;;;;8.70;5.90;;;10.10;99.90;;;;;;5052863;28;20569;-66
2023/02/11 11:08:03;;;;;;;8.63;5.97;;;10.00;99.90;;;;;;5052799;28;20237;-66
2023/02/11 11:10:41;;;;;;;9.70;6.47;;;10.00;99.90;;;;;;5052774;28;20693;-63
2023/02/11 11:13:24;;;;;;;9.13;6.97;;;9.90;99.90;;;;;;5052591;28;20707;-62
2023/02/11 11:16:15;;;;;;;10.67;7.30;;;10.00;99.90;;;;;;5052407;28;20721;-63
2023/02/11 11:18:43;;;;;;;10.70;6.97;;;10.10;99.90;;;;;;5060335;28;20206;-64
2023/02/11 11:21:14;;;;;;;9.90;7.33;;;10.30;99.90;;;;;;5079932;28;20573;-65
2023/02/11 11:23:49;;;;;;;10.03;7.50;;;10.40;99.90;;;;;;5093022;28;20207;-66
2023/02/11 11:26:17;;;;;;;9.93;6.77;;;10.40;99.90;;;;;;5092969;28;20224;-63
2023/02/11 11:28:54;;;;;;;10.27;7.50;;;10.50;99.90;;;;;;5092199;28;20204;-66
2023/02/11 11:31:24;;;;;;;11.53;7.23;;;10.30;99.90;;;;;;5089206;28;20668;-64
2023/02/11 11:33:53;;;;;;;10.10;7.77;;;10.30;99.90;;;;;;5092679;28;20232;-64
2023/02/11 11:36:22;;;;;;;10.40;7.33;;;10.40;99.90;;;;;;5092295;28;20515;-66
2023/02/11 11:38:54;;;;;;;10.40;7.47;;;10.40;99.90;;;;;;5092783;28;20211;-64
2023/02/11 11:41:24;;;;;;;10.53;7.77;;;10.50;99.90;;;;;;5092629;28;20224;-63
2023/02/11 11:43:56;;;;;;;8.93;7.37;;;10.70;99.90;;;;;;5091792;28;20204;-62
2023/02/11 11:46:26;;;;;;;11.00;7.87;;;10.60;99.90;;;;;;5092582;28;20247;-71
2023/02/11 11:49:00;;;;;;;11.07;7.97;;;10.40;99.90;;;;;;5092325;28;20314;-63
2023/02/11 11:51:28;;;;;;;10.90;7.40;;;10.20;99.90;;;;;;5092538;28;20199;-67
2023/02/11 11:54:00;;;;;;;10.60;8.30;;;10.30;99.90;;;;;;5092284;28;20204;-69
2023/02/11 11:56:29;;;;;;;11.30;7.77;;;10.70;99.90;;;;;;5091995;28;20240;-63
2023/02/11 11:58:57;;;;;;;12.77;8.17;;;11.30;99.90;;;;;;5091661;28;20204;-63
2023/02/11 12:01:34;;;;;;;13.10;8.53;;;12.10;99.90;;;;;;5083133;28;20216;-68
2023/02/11 12:04:22;;;;;;;10.97;7.93;;;12.70;99.90;;;;;;5071342;28;20810;-63
2023/02/11 12:07:00;;;;;;;13.30;8.90;;;13.00;99.90;;;;;;5071538;28;20279;-63
2023/02/11 12:09:35;;;;;;;13.67;8.70;;;13.10;99.90;;;;;;5071582;28;20247;-65
2023/02/11 12:12:16;;;;;;;11.47;8.07;;;12.90;99.90;;;;;;5071594;28;20212;-68
2023/02/11 12:14:53;;;;;;;13.13;8.20;;;12.60;99.90;;;;;;5071667;28;20509;-65
2023/02/11 12:17:33;;;;;;;13.27;8.97;;;12.30;99.90;;;;;;5071273;28;20240;-68
2023/02/11 12:20:17;;;;;;;12.07;9.63;;;12.10;99.90;;;;;;5070361;28;20204;-66
2023/02/11 12:22:56;;;;;;;14.30;9.40;;;12.20;99.90;;;;;;5073445;28;20748;-69
2023/02/11 12:25:29;;;;;;;12.07;8.87;;;12.40;99.90;;;;;;5090330;28;20263;-67
2023/02/11 12:28:03;;;;;;;12.43;8.53;;;12.50;99.90;;;;;;5089941;28;20319;-70
2023/02/11 12:30:58;;;;;;;11.33;8.53;;;12.50;99.90;;;;;;5067963;28;20248;-67
2023/02/11 12:33:40;;;;;;;11.27;8.67;;;12.30;99.90;;;;;;5039955;28;20270;-64
2023/02/11 12:36:12;;;;;;;11.13;9.13;;;12.10;99.90;;;;;;5071288;28;20240;-68
2023/02/11 12:38:56;;;;;;;12.77;8.77;;;11.90;99.90;;;;;;5060464;28;20692;-63
2023/02/11 12:44:42;;;;;;;13.63;9.40;;;11.80;99.90;;;;;;5051620;28;20343;-66
2023/02/11 12:47:15;;;;;;;15.03;9.13;;;11.80;99.90;;;;;;5050563;28;20229;-70
2023/02/11 12:50:04;;;;;;;14.17;8.80;;;12.00;99.90;;;;;;5050322;28;20726;-67
2023/02/11 12:52:44;;;;;;;12.13;9.50;;;12.00;99.90;;;;;;5050671;28;20292;-64
2023/02/11 12:55:19;;;;;;;14.40;9.53;;;11.80;99.90;;;;;;5050690;28;20283;-65
2023/02/11 12:57:50;;;;;;;14.10;10.20;;;11.70;99.90;;;;;;5050370;28;20251;-63
2023/02/11 13:00:18;;;;;;;16.70;9.80;;;11.70;99.90;;;;;;5049886;28;20202;-65
2023/02/11 13:02:53;;;;;;;14.63;9.70;;;11.60;99.90;;;;;;5050603;28;20580;-63